METAR AND TAF INFORMATION
METAR FOR KNY0
ADDS - METARS form results

(1814 UTC 15 April 2021)
Data provider http://aviationweather.gov/metar/data/
 
METAR text: KNY0 151756Z AUTO 33003KT 4SM BKN024 OVC037 07/07 A2966 RMK AO2 P0010
Conditions at: KNY0 (JOHNSTOWN , NY, US) observed 1756 UTC 15 April 2021
Temperature: 7.0°C (45°F)
Dewpoint: 7.0°C (45°F) [RH = 100%]
Pressure (altimeter): 29.66 inches Hg (1004.5 mb)
Winds: from the NNW (330 degrees) at 3 MPH (3 knots; 1.5 m/s)
Visibility: 4 miles ( 6 km)
Ceiling: 2400 feet AGL
Clouds: broken clouds at 2400 feet AGL
overcast cloud deck at 3700 feet AGL
Weather: automated observation with no human augmentation;
there may or may not be significant weather present at this time

METAR text: KNY0 151739Z AUTO 26003KT 2 1/2SM BKN024 OVC032 07/07 A2967 RMK AO2 P0007
Conditions at: KNY0 (JOHNSTOWN , NY, US) observed 1739 UTC 15 April 2021
Temperature: 7.0°C (45°F)
Dewpoint: 7.0°C (45°F) [RH = 100%]
Pressure (altimeter): 29.67 inches Hg (1004.8 mb)
Winds: from the W (260 degrees) at 3 MPH (3 knots; 1.5 m/s)
Visibility: 2.50 miles (4.02 km)
Ceiling: 2400 feet AGL
Clouds: broken clouds at 2400 feet AGL
overcast cloud deck at 3200 feet AGL
Weather: automated observation with no human augmentation;
there may or may not be significant weather present at this time

METAR text: KNY0 151717Z AUTO 00000KT 5SM SCT020 BKN024 OVC032 07/07 A2968 RMK AO2 P0001
Conditions at: KNY0 (JOHNSTOWN , NY, US) observed 1717 UTC 15 April 2021
Temperature: 7.0°C (45°F)
Dewpoint: 7.0°C (45°F) [RH = 100%]
Pressure (altimeter): 29.68 inches Hg (1005.2 mb)
Winds: calm
Visibility: 5 miles ( 8 km)
Ceiling: 2400 feet AGL
Clouds: scattered clouds at 2000 feet AGL
broken clouds at 2400 feet AGL
overcast cloud deck at 3200 feet AGL
Weather: automated observation with no human augmentation;
there may or may not be significant weather present at this time

 AIRPORT MAP

 RUNWAY INFORMATION
Runway 10 Runway length 4000 ft Runway width 75 ft
Runway elevation 865 ft Runway displaced threshold 0 ft Runway heading 89
Runway 28 Runway length 4000 ft Runway width 75 ft
Runway elevation 881 ft Runway displaced threshold 0 ft Runway heading 269

 AIRPORT FREQUENCIES
Type A/D Name ALBANY APP Frequency 118.05 MHZ
Type UNIC Name CTAF/UNICO Frequency 122.7 MHZ

 AIRPORT NEAR NAVIGATION AIDS

-